sensor_id;sensor_type;location;lat;lon;timestamp;pressure;altitude;pressure_sealevel;temperature;humidity
62124;BME280;48110;47.532;19.078;2023-05-25T00:01:44;100504.41;;;16.26;100.00
62124;BME280;48110;47.532;19.078;2023-05-25T00:04:54;100505.22;;;16.27;100.00
62124;BME280;48110;47.532;19.078;2023-05-25T00:08:00;100512.41;;;16.20;100.00
62124;BME280;48110;47.532;19.078;2023-05-25T00:11:06;100508.00;;;15.99;100.00
62124;BME280;48110;47.532;19.078;2023-05-25T00:14:13;100511.09;;;15.96;100.00
62124;BME280;48110;47.532;19.078;2023-05-25T00:17:20;100508.22;;;16.04;100.00
62124;BME280;48110;47.532;19.078;2023-05-25T00:20:26;100513.41;;;16.12;100.00
62124;BME280;48110;47.532;19.078;2023-05-25T00:23:34;100508.66;;;16.01;100.00
62124;BME280;48110;47.532;19.078;2023-05-25T00:26:41;100510.06;;;15.97;100.00
62124;BME280;48110;47.532;19.078;2023-05-25T00:29:49;100512.72;;;15.90;100.00
62124;BME280;48110;47.532;19.078;2023-05-25T00:32:56;100512.28;;;15.87;100.00
62124;BME280;48110;47.532;19.078;2023-05-25T00:36:06;100522.03;;;16.01;100.00
62124;BME280;48110;47.532;19.078;2023-05-25T00:39:16;100516.41;;;15.89;100.00
62124;BME280;48110;47.532;19.078;2023-05-25T00:42:24;100514.50;;;15.83;100.00
62124;BME280;48110;47.532;19.078;2023-05-25T00:45:30;100519.06;;;15.83;100.00
62124;BME280;48110;47.532;19.078;2023-05-25T00:48:38;100526.03;;;15.77;100.00
62124;BME280;48110;47.532;19.078;2023-05-25T00:51:44;100527.88;;;15.83;100.00
62124;BME280;48110;47.532;19.078;2023-05-25T00:54:53;100529.56;;;15.84;100.00
62124;BME280;48110;47.532;19.078;2023-05-25T00:58:04;100537.22;;;15.94;100.00
62124;BME280;48110;47.532;19.078;2023-05-25T01:01:13;100535.13;;;15.83;100.00
62124;BME280;48110;47.532;19.078;2023-05-25T01:04:20;100539.00;;;15.80;100.00
62124;BME280;48110;47.532;19.078;2023-05-25T01:07:29;100536.97;;;15.89;100.00
62124;BME280;48110;47.532;19.078;2023-05-25T01:10:38;100539.94;;;15.66;100.00
62124;BME280;48110;47.532;19.078;2023-05-25T01:13:52;100547.69;;;15.54;100.00
62124;BME280;48110;47.532;19.078;2023-05-25T01:17:01;100544.72;;;15.43;100.00
62124;BME280;48110;47.532;19.078;2023-05-25T01:20:08;100542.91;;;15.22;100.00
62124;BME280;48110;47.532;19.078;2023-05-25T01:23:17;100542.03;;;15.15;100.00
62124;BME280;48110;47.532;19.078;2023-05-25T01:26:28;100547.91;;;15.04;100.00
62124;BME280;48110;47.532;19.078;2023-05-25T01:29:39;100545.66;;;15.07;100.00
62124;BME280;48110;47.532;19.078;2023-05-25T01:32:48;100546.16;;;14.96;100.00
62124;BME280;48110;47.532;19.078;2023-05-25T01:35:56;100550.47;;;14.91;100.00
62124;BME280;48110;47.532;19.078;2023-05-25T01:39:04;100549.56;;;14.84;100.00
62124;BME280;48110;47.532;19.078;2023-05-25T01:42:10;100553.06;;;14.84;100.00
62124;BME280;48110;47.532;19.078;2023-05-25T01:45:16;100557.56;;;14.84;100.00
62124;BME280;48110;47.532;19.078;2023-05-25T01:52:06;100554.19;;;14.96;100.00
62124;BME280;48110;47.532;19.078;2023-05-25T01:55:18;100557.75;;;15.03;100.00
62124;BME280;48110;47.532;19.078;2023-05-25T01:58:31;100550.94;;;15.01;100.00
62124;BME280;48110;47.532;19.078;2023-05-25T02:01:42;100549.50;;;14.98;100.00
62124;BME280;48110;47.532;19.078;2023-05-25T02:04:52;100552.66;;;14.87;100.00
62124;BME280;48110;47.532;19.078;2023-05-25T02:08:02;100553.31;;;14.68;100.00
62124;BME280;48110;47.532;19.078;2023-05-25T02:11:12;100559.34;;;14.55;100.00
62124;BME280;48110;47.532;19.078;2023-05-25T02:14:18;100547.19;;;14.53;100.00
62124;BME280;48110;47.532;19.078;2023-05-25T02:17:25;100551.25;;;14.49;100.00
62124;BME280;48110;47.532;19.078;2023-05-25T02:20:33;100555.06;;;14.40;100.00
62124;BME280;48110;47.532;19.078;2023-05-25T02:23:41;100556.59;;;14.34;100.00
62124;BME280;48110;47.532;19.078;2023-05-25T02:26:50;100555.31;;;14.30;100.00
62124;BME280;48110;47.532;19.078;2023-05-25T02:29:56;100563.31;;;14.30;100.00
62124;BME280;48110;47.532;19.078;2023-05-25T02:33:04;100563.31;;;14.45;100.00
62124;BME280;48110;47.532;19.078;2023-05-25T02:36:11;100563.06;;;14.40;100.00
62124;BME280;48110;47.532;19.078;2023-05-25T02:39:19;100572.81;;;14.32;100.00
62124;BME280;48110;47.532;19.078;2023-05-25T02:42:25;100565.56;;;14.26;100.00
62124;BME280;48110;47.532;19.078;2023-05-25T02:45:31;100570.78;;;14.20;100.00
62124;BME280;48110;47.532;19.078;2023-05-25T02:48:40;100578.06;;;14.26;100.00
62124;BME280;48110;47.532;19.078;2023-05-25T02:51:50;100580.34;;;14.29;100.00
62124;BME280;48110;47.532;19.078;2023-05-25T02:54:56;100568.94;;;14.35;100.00
62124;BME280;48110;47.532;19.078;2023-05-25T02:58:03;100575.41;;;14.26;100.00
62124;BME280;48110;47.532;19.078;2023-05-25T03:01:10;100577.06;;;14.27;100.00
62124;BME280;48110;47.532;19.078;2023-05-25T03:04:23;100569.63;;;14.22;100.00
62124;BME280;48110;47.532;19.078;2023-05-25T03:07:32;100579.72;;;14.27;100.00
62124;BME280;48110;47.532;19.078;2023-05-25T03:10:37;100571.34;;;14.30;100.00
62124;BME280;48110;47.532;19.078;2023-05-25T03:13:48;100583.13;;;14.21;100.00
62124;BME280;48110;47.532;19.078;2023-05-25T03:16:55;100580.72;;;14.26;100.00
62124;BME280;48110;47.532;19.078;2023-05-25T03:20:02;100582.19;;;14.28;100.00
62124;BME280;48110;47.532;19.078;2023-05-25T03:23:10;100591.22;;;14.27;100.00
62124;BME280;48110;47.532;19.078;2023-05-25T03:26:17;100604.31;;;14.22;100.00
62124;BME280;48110;47.532;19.078;2023-05-25T03:29:24;100597.94;;;14.23;100.00
62124;BME280;48110;47.532;19.078;2023-05-25T03:32:32;100587.25;;;14.23;100.00
62124;BME280;48110;47.532;19.078;2023-05-25T03:35:39;100591.69;;;14.31;100.00
62124;BME280;48110;47.532;19.078;2023-05-25T03:38:45;100591.28;;;14.34;100.00
62124;BME280;48110;47.532;19.078;2023-05-25T03:41:51;100587.91;;;14.40;100.00
62124;BME280;48110;47.532;19.078;2023-05-25T03:44:57;100592.41;;;14.40;100.00
62124;BME280;48110;47.532;19.078;2023-05-25T03:48:05;100593.97;;;14.49;100.00
62124;BME280;48110;47.532;19.078;2023-05-25T03:51:12;100589.09;;;14.52;100.00
62124;BME280;48110;47.532;19.078;2023-05-25T03:54:17;100602.16;;;14.62;100.00
62124;BME280;48110;47.532;19.078;2023-05-25T03:57:22;100600.22;;;14.77;100.00
62124;BME280;48110;47.532;19.078;2023-05-25T04:00:29;100593.25;;;14.76;100.00
62124;BME280;48110;47.532;19.078;2023-05-25T04:03:34;100604.59;;;14.63;100.00
62124;BME280;48110;47.532;19.078;2023-05-25T04:06:43;100612.75;;;14.55;100.00
62124;BME280;48110;47.532;19.078;2023-05-25T04:09:54;100611.13;;;14.75;100.00
62124;BME280;48110;47.532;19.078;2023-05-25T04:13:01;100612.03;;;14.68;100.00
62124;BME280;48110;47.532;19.078;2023-05-25T04:16:07;100611.69;;;14.92;100.00
62124;BME280;48110;47.532;19.078;2023-05-25T04:19:15;100615.97;;;15.08;100.00
62124;BME280;48110;47.532;19.078;2023-05-25T04:22:21;100625.59;;;15.30;100.00
62124;BME280;48110;47.532;19.078;2023-05-25T04:25:29;100625.75;;;15.43;100.00
62124;BME280;48110;47.532;19.078;2023-05-25T04:28:37;100621.88;;;15.74;100.00
62124;BME280;48110;47.532;19.078;2023-05-25T04:31:47;100627.69;;;16.12;100.00
62124;BME280;48110;47.532;19.078;2023-05-25T04:34:56;100623.25;;;16.32;100.00
62124;BME280;48110;47.532;19.078;2023-05-25T04:38:05;100631.13;;;16.40;100.00
62124;BME280;48110;47.532;19.078;2023-05-25T04:41:13;100636.50;;;16.46;100.00
62124;BME280;48110;47.532;19.078;2023-05-25T04:44:20;100641.78;;;16.33;100.00
62124;BME280;48110;47.532;19.078;2023-05-25T04:47:28;100633.84;;;16.53;100.00
62124;BME280;48110;47.532;19.078;2023-05-25T04:50:35;100634.53;;;16.62;100.00
62124;BME280;48110;47.532;19.078;2023-05-25T04:53:44;100635.78;;;16.72;100.00
62124;BME280;48110;47.532;19.078;2023-05-25T04:56:51;100636.25;;;16.41;100.00
62124;BME280;48110;47.532;19.078;2023-05-25T04:59:56;100631.66;;;16.63;100.00
62124;BME280;48110;47.532;19.078;2023-05-25T05:03:02;100636.94;;;16.50;100.00
62124;BME280;48110;47.532;19.078;2023-05-25T05:06:07;100637.03;;;16.29;100.00
62124;BME280;48110;47.532;19.078;2023-05-25T05:09:13;100639.72;;;16.29;100.00
62124;BME280;48110;47.532;19.078;2023-05-25T05:12:21;100647.37;;;16.38;100.00
62124;BME280;48110;47.532;19.078;2023-05-25T05:15:27;100642.62;;;16.34;100.00
62124;BME280;48110;47.532;19.078;2023-05-25T05:18:35;100646.78;;;16.43;100.00
62124;BME280;48110;47.532;19.078;2023-05-25T05:21:40;100649.50;;;16.56;100.00
62124;BME280;48110;47.532;19.078;2023-05-25T05:24:45;100643.87;;;16.79;100.00
62124;BME280;48110;47.532;19.078;2023-05-25T05:27:50;100642.66;;;16.88;100.00
62124;BME280;48110;47.532;19.078;2023-05-25T05:30:54;100648.44;;;16.98;100.00
62124;BME280;48110;47.532;19.078;2023-05-25T05:33:57;100648.06;;;17.08;100.00
62124;BME280;48110;47.532;19.078;2023-05-25T05:37:00;100648.72;;;17.36;100.00
62124;BME280;48110;47.532;19.078;2023-05-25T05:40:06;100648.31;;;17.46;100.00
62124;BME280;48110;47.532;19.078;2023-05-25T05:43:11;100644.41;;;17.61;100.00
62124;BME280;48110;47.532;19.078;2023-05-25T05:46:14;100646.87;;;17.69;100.00
62124;BME280;48110;47.532;19.078;2023-05-25T05:49:19;100641.09;;;17.86;100.00
62124;BME280;48110;47.532;19.078;2023-05-25T05:52:23;100646.66;;;17.91;100.00
62124;BME280;48110;47.532;19.078;2023-05-25T05:55:26;100652.00;;;17.97;100.00
62124;BME280;48110;47.532;19.078;2023-05-25T05:58:31;100657.81;;;17.94;100.00
62124;BME280;48110;47.532;19.078;2023-05-25T06:01:35;100661.94;;;17.90;100.00
62124;BME280;48110;47.532;19.078;2023-05-25T06:04:40;100659.00;;;18.11;100.00
62124;BME280;48110;47.532;19.078;2023-05-25T06:07:44;100669.09;;;18.22;100.00
62124;BME280;48110;47.532;19.078;2023-05-25T06:10:48;100669.44;;;18.52;100.00
62124;BME280;48110;47.532;19.078;2023-05-25T06:13:52;100666.34;;;18.49;100.00
62124;BME280;48110;47.532;19.078;2023-05-25T06:16:57;100662.25;;;18.33;100.00
62124;BME280;48110;47.532;19.078;2023-05-25T06:20:01;100669.66;;;18.57;100.00
62124;BME280;48110;47.532;19.078;2023-05-25T06:23:06;100669.50;;;18.84;100.00
62124;BME280;48110;47.532;19.078;2023-05-25T06:26:11;100663.75;;;18.80;100.00
62124;BME280;48110;47.532;19.078;2023-05-25T06:29:15;100664.97;;;18.84;100.00
62124;BME280;48110;47.532;19.078;2023-05-25T06:32:20;100671.78;;;18.87;100.00
62124;BME280;48110;47.532;19.078;2023-05-25T06:35:23;100669.66;;;18.95;100.00
62124;BME280;48110;47.532;19.078;2023-05-25T06:38:28;100667.63;;;19.22;100.00
62124;BME280;48110;47.532;19.078;2023-05-25T06:41:33;100661.38;;;19.28;100.00
62124;BME280;48110;47.532;19.078;2023-05-25T06:44:36;100659.09;;;19.63;100.00
62124;BME280;48110;47.532;19.078;2023-05-25T06:47:41;100672.88;;;19.42;100.00
62124;BME280;48110;47.532;19.078;2023-05-25T06:50:44;100678.31;;;19.67;100.00
62124;BME280;48110;47.532;19.078;2023-05-25T06:53:48;100680.91;;;19.80;100.00
62124;BME280;48110;47.532;19.078;2023-05-25T06:56:52;100677.25;;;19.68;100.00
62124;BME280;48110;47.532;19.078;2023-05-25T06:59:56;100679.00;;;19.80;100.00
62124;BME280;48110;47.532;19.078;2023-05-25T07:02:59;100680.25;;;20.03;100.00
62124;BME280;48110;47.532;19.078;2023-05-25T07:06:05;100679.38;;;20.09;100.00
62124;BME280;48110;47.532;19.078;2023-05-25T07:09:08;100687.00;;;19.93;100.00
62124;BME280;48110;47.532;19.078;2023-05-25T07:12:12;100683.81;;;20.21;100.00
62124;BME280;48110;47.532;19.078;2023-05-25T07:15:16;100693.28;;;20.24;100.00
62124;BME280;48110;47.532;19.078;2023-05-25T07:18:21;100690.12;;;20.33;100.00
62124;BME280;48110;47.532;19.078;2023-05-25T07:21:24;100693.78;;;20.75;100.00
62124;BME280;48110;47.532;19.078;2023-05-25T07:24:28;100693.75;;;20.94;100.00
62124;BME280;48110;47.532;19.078;2023-05-25T07:27:31;100697.66;;;21.28;100.00
62124;BME280;48110;47.532;19.078;2023-05-25T07:30:35;100698.69;;;21.56;100.00
62124;BME280;48110;47.532;19.078;2023-05-25T07:33:39;100690.81;;;23.00;85.37
62124;BME280;48110;47.532;19.078;2023-05-25T07:36:43;100689.78;;;22.61;85.82
62124;BME280;48110;47.532;19.078;2023-05-25T07:39:49;100701.81;;;23.66;78.92
62124;BME280;48110;47.532;19.078;2023-05-25T07:42:53;100693.25;;;22.84;81.89
62124;BME280;48110;47.532;19.078;2023-05-25T07:45:56;100691.81;;;23.67;77.71
62124;BME280;48110;47.532;19.078;2023-05-25T07:48:59;100695.78;;;24.14;75.79
62124;BME280;48110;47.532;19.078;2023-05-25T07:52:05;100697.84;;;23.74;72.41
62124;BME280;48110;47.532;19.078;2023-05-25T07:55:09;100690.69;;;24.56;70.37
62124;BME280;48110;47.532;19.078;2023-05-25T07:58:13;100701.34;;;25.06;65.55
62124;BME280;48110;47.532;19.078;2023-05-25T08:01:17;100697.81;;;25.96;59.93
62124;BME280;48110;47.532;19.078;2023-05-25T08:04:21;100701.59;;;25.32;62.16
62124;BME280;48110;47.532;19.078;2023-05-25T08:07:25;100703.66;;;25.78;59.86
62124;BME280;48110;47.532;19.078;2023-05-25T08:10:30;100698.28;;;26.25;57.17
62124;BME280;48110;47.532;19.078;2023-05-25T08:13:34;100698.69;;;25.12;60.23
62124;BME280;48110;47.532;19.078;2023-05-25T08:16:37;100696.97;;;25.32;61.72
62124;BME280;48110;47.532;19.078;2023-05-25T08:19:40;100697.28;;;26.99;57.14
62124;BME280;48110;47.532;19.078;2023-05-25T08:22:43;100691.31;;;25.98;57.31
62124;BME280;48110;47.532;19.078;2023-05-25T08:25:46;100691.59;;;25.64;60.03
62124;BME280;48110;47.532;19.078;2023-05-25T08:28:51;100701.19;;;25.77;57.52
62124;BME280;48110;47.532;19.078;2023-05-25T08:31:54;100703.78;;;24.86;59.63
62124;BME280;48110;47.532;19.078;2023-05-25T08:34:58;100702.22;;;25.66;58.47
62124;BME280;48110;47.532;19.078;2023-05-25T08:38:02;100697.47;;;26.25;55.46
62124;BME280;48110;47.532;19.078;2023-05-25T08:41:06;100703.66;;;25.78;57.66
62124;BME280;48110;47.532;19.078;2023-05-25T08:44:09;100695.13;;;26.02;55.13
62124;BME280;48110;47.532;19.078;2023-05-25T08:47:13;100698.19;;;26.15;55.78
62124;BME280;48110;47.532;19.078;2023-05-25T08:50:18;100697.84;;;27.06;54.87
62124;BME280;48110;47.532;19.078;2023-05-25T08:53:23;100698.47;;;27.84;51.87
62124;BME280;48110;47.532;19.078;2023-05-25T08:56:29;100698.69;;;28.33;50.57
62124;BME280;48110;47.532;19.078;2023-05-25T09:02:53;100703.78;;;29.19;46.84
62124;BME280;48110;47.532;19.078;2023-05-25T09:05:59;100704.19;;;28.02;49.19
62124;BME280;48110;47.532;19.078;2023-05-25T09:09:03;100703.12;;;27.68;50.37
62124;BME280;48110;47.532;19.078;2023-05-25T09:12:09;100696.53;;;27.39;51.86
62124;BME280;48110;47.532;19.078;2023-05-25T09:15:12;100698.63;;;26.86;53.86
62124;BME280;48110;47.532;19.078;2023-05-25T09:18:15;100692.38;;;25.96;57.89
62124;BME280;48110;47.532;19.078;2023-05-25T09:21:19;100701.78;;;25.79;58.33
62124;BME280;48110;47.532;19.078;2023-05-25T09:24:22;100689.50;;;27.83;53.81
62124;BME280;48110;47.532;19.078;2023-05-25T09:27:26;100695.19;;;27.46;52.93
62124;BME280;48110;47.532;19.078;2023-05-25T09:30:30;100695.59;;;26.30;56.48
62124;BME280;48110;47.532;19.078;2023-05-25T09:33:38;100696.00;;;26.54;56.17
62124;BME280;48110;47.532;19.078;2023-05-25T09:36:42;100695.34;;;26.89;56.07
62124;BME280;48110;47.532;19.078;2023-05-25T09:39:45;100694.37;;;28.12;51.30
62124;BME280;48110;47.532;19.078;2023-05-25T09:42:49;100698.44;;;30.34;48.18
62124;BME280;48110;47.532;19.078;2023-05-25T09:45:52;100713.28;;;29.26;48.73
62124;BME280;48110;47.532;19.078;2023-05-25T09:48:58;100703.03;;;27.12;53.12
62124;BME280;48110;47.532;19.078;2023-05-25T09:52:08;100704.22;;;27.52;52.63
62124;BME280;48110;47.532;19.078;2023-05-25T09:55:14;100702.47;;;26.38;55.73
62124;BME280;48110;47.532;19.078;2023-05-25T09:58:17;100697.13;;;26.68;56.20
62124;BME280;48110;47.532;19.078;2023-05-25T10:01:22;100704.94;;;26.50;57.07
62124;BME280;48110;47.532;19.078;2023-05-25T10:04:26;100700.38;;;25.76;60.40
62124;BME280;48110;47.532;19.078;2023-05-25T10:07:30;100710.09;;;27.03;57.77
62124;BME280;48110;47.532;19.078;2023-05-25T10:10:34;100701.72;;;27.35;54.59
62124;BME280;48110;47.532;19.078;2023-05-25T10:13:38;100708.50;;;29.08;50.54
62124;BME280;48110;47.532;19.078;2023-05-25T10:16:44;100700.03;;;27.14;55.06
62124;BME280;48110;47.532;19.078;2023-05-25T10:19:54;100697.06;;;30.08;48.67
62124;BME280;48110;47.532;19.078;2023-05-25T10:23:00;100698.59;;;30.48;44.91
62124;BME280;48110;47.532;19.078;2023-05-25T10:26:07;100691.91;;;28.25;50.95
62124;BME280;48110;47.532;19.078;2023-05-25T10:29:12;100694.87;;;30.34;45.59
62124;BME280;48110;47.532;19.078;2023-05-25T10:32:17;100689.31;;;28.64;49.10
62124;BME280;48110;47.532;19.078;2023-05-25T10:35:23;100687.06;;;28.81;48.64
62124;BME280;48110;47.532;19.078;2023-05-25T10:38:29;100689.00;;;29.93;45.98
62124;BME280;48110;47.532;19.078;2023-05-25T10:41:33;100684.78;;;32.85;40.41
62124;BME280;48110;47.532;19.078;2023-05-25T10:44:39;100686.50;;;29.33;46.98
62124;BME280;48110;47.532;19.078;2023-05-25T10:47:44;100676.94;;;28.13;50.95
62124;BME280;48110;47.532;19.078;2023-05-25T10:50:51;100677.00;;;26.69;55.00
62124;BME280;48110;47.532;19.078;2023-05-25T10:54:00;100676.50;;;29.53;46.81
62124;BME280;48110;47.532;19.078;2023-05-25T10:57:18;100677.09;;;31.02;42.99
62124;BME280;48110;47.532;19.078;2023-05-25T11:00:22;100672.81;;;30.01;44.04
62124;BME280;48110;47.532;19.078;2023-05-25T11:09:56;100652.31;;;30.22;42.51
62124;BME280;48110;47.532;19.078;2023-05-25T11:13:20;100655.56;;;30.01;45.25
62124;BME280;48110;47.532;19.078;2023-05-25T11:19:42;100650.72;;;28.06;50.39
62124;BME280;48110;47.532;19.078;2023-05-25T11:22:45;100651.38;;;28.58;46.78
62124;BME280;48110;47.532;19.078;2023-05-25T11:25:48;100643.69;;;27.19;50.24
62124;BME280;48110;47.532;19.078;2023-05-25T11:28:52;100648.00;;;30.40;44.60
62124;BME280;48110;47.532;19.078;2023-05-25T11:31:55;100642.25;;;31.54;41.03
62124;BME280;48110;47.532;19.078;2023-05-25T11:34:58;100655.75;;;33.73;38.25
62124;BME280;48110;47.532;19.078;2023-05-25T11:38:04;100644.22;;;35.23;36.20
62124;BME280;48110;47.532;19.078;2023-05-25T11:41:15;100652.94;;;35.43;34.42
62124;BME280;48110;47.532;19.078;2023-05-25T11:44:29;100639.19;;;31.23;40.87
62124;BME280;48110;47.532;19.078;2023-05-25T11:47:33;100643.09;;;32.42;39.58
62124;BME280;48110;47.532;19.078;2023-05-25T11:50:38;100632.28;;;31.44;41.19
62124;BME280;48110;47.532;19.078;2023-05-25T11:53:41;100630.06;;;33.55;38.12
62124;BME280;48110;47.532;19.078;2023-05-25T11:56:45;100619.78;;;31.71;40.61
62124;BME280;48110;47.532;19.078;2023-05-25T11:59:49;100627.72;;;30.84;41.84
62124;BME280;48110;47.532;19.078;2023-05-25T12:02:53;100607.72;;;27.63;48.91
62124;BME280;48110;47.532;19.078;2023-05-25T12:05:57;100603.50;;;26.59;52.09
62124;BME280;48110;47.532;19.078;2023-05-25T12:09:00;100607.03;;;26.60;53.51
62124;BME280;48110;47.532;19.078;2023-05-25T12:12:09;100603.88;;;30.65;44.80
62124;BME280;48110;47.532;19.078;2023-05-25T12:15:14;100605.53;;;35.49;34.95
62124;BME280;48110;47.532;19.078;2023-05-25T12:18:22;100611.50;;;34.31;35.99
62124;BME280;48110;47.532;19.078;2023-05-25T12:21:25;100604.56;;;34.42;35.13
62124;BME280;48110;47.532;19.078;2023-05-25T12:24:29;100611.06;;;35.15;34.03
62124;BME280;48110;47.532;19.078;2023-05-25T12:27:32;100602.22;;;35.73;33.90
62124;BME280;48110;47.532;19.078;2023-05-25T12:30:37;100602.00;;;37.16;31.74
62124;BME280;48110;47.532;19.078;2023-05-25T12:33:40;100601.19;;;34.97;33.25
62124;BME280;48110;47.532;19.078;2023-05-25T12:36:47;100603.63;;;36.55;31.57
62124;BME280;48110;47.532;19.078;2023-05-25T12:39:53;100602.78;;;35.41;33.00
62124;BME280;48110;47.532;19.078;2023-05-25T12:42:57;100601.34;;;36.28;31.49
62124;BME280;48110;47.532;19.078;2023-05-25T12:46:01;100599.53;;;39.49;28.15
62124;BME280;48110;47.532;19.078;2023-05-25T12:49:30;100595.72;;;40.51;26.97
62124;BME280;48110;47.532;19.078;2023-05-25T12:52:41;100589.28;;;36.32;30.84
62124;BME280;48110;47.532;19.078;2023-05-25T12:55:48;100585.94;;;35.08;33.45
62124;BME280;48110;47.532;19.078;2023-05-25T12:58:53;100580.50;;;29.83;41.50
62124;BME280;48110;47.532;19.078;2023-05-25T13:01:58;100580.47;;;27.28;45.92
62124;BME280;48110;47.532;19.078;2023-05-25T13:05:02;100569.16;;;28.05;46.83
62124;BME280;48110;47.532;19.078;2023-05-25T13:08:07;100571.56;;;28.32;46.25
62124;BME280;48110;47.532;19.078;2023-05-25T13:11:11;100559.44;;;27.79;47.27
62124;BME280;48110;47.532;19.078;2023-05-25T13:14:15;100565.97;;;26.71;50.46
62124;BME280;48110;47.532;19.078;2023-05-25T13:17:18;100563.69;;;28.20;47.89
62124;BME280;48110;47.532;19.078;2023-05-25T13:20:23;100559.50;;;30.02;42.83
62124;BME280;48110;47.532;19.078;2023-05-25T13:23:27;100552.56;;;27.96;45.54
62124;BME280;48110;47.532;19.078;2023-05-25T13:26:31;100546.69;;;26.93;48.83
62124;BME280;48110;47.532;19.078;2023-05-25T13:29:35;100539.16;;;29.37;43.67
62124;BME280;48110;47.532;19.078;2023-05-25T13:32:40;100537.03;;;34.14;36.18
62124;BME280;48110;47.532;19.078;2023-05-25T13:35:46;100556.25;;;37.64;30.67
62124;BME280;48110;47.532;19.078;2023-05-25T13:39:10;100541.69;;;35.97;32.52
62124;BME280;48110;47.532;19.078;2023-05-25T13:42:16;100533.25;;;34.92;34.26
62124;BME280;48110;47.532;19.078;2023-05-25T13:45:41;100530.91;;;35.84;33.24
62124;BME280;48110;47.532;19.078;2023-05-25T13:49:06;100523.25;;;37.83;29.72
62124;BME280;48110;47.532;19.078;2023-05-25T13:52:30;100517.09;;;36.13;32.53
62124;BME280;48110;47.532;19.078;2023-05-25T13:55:53;100511.25;;;35.47;32.37
62124;BME280;48110;47.532;19.078;2023-05-25T13:58:57;100510.59;;;36.38;30.93
62124;BME280;48110;47.532;19.078;2023-05-25T14:02:02;100503.88;;;35.05;33.48
62124;BME280;48110;47.532;19.078;2023-05-25T14:05:07;100498.63;;;35.76;31.67
62124;BME280;48110;47.532;19.078;2023-05-25T14:08:12;100497.53;;;32.19;36.59
62124;BME280;48110;47.532;19.078;2023-05-25T14:11:18;100490.12;;;30.54;40.50
62124;BME280;48110;47.532;19.078;2023-05-25T14:14:34;100491.34;;;28.67;43.49
62124;BME280;48110;47.532;19.078;2023-05-25T14:17:43;100488.16;;;26.91;48.30
62124;BME280;48110;47.532;19.078;2023-05-25T14:20:48;100492.75;;;26.80;49.47
62124;BME280;48110;47.532;19.078;2023-05-25T14:23:53;100493.22;;;27.68;47.95
62124;BME280;48110;47.532;19.078;2023-05-25T14:26:58;100494.75;;;27.94;48.43
62124;BME280;48110;47.532;19.078;2023-05-25T14:30:05;100492.91;;;27.80;49.40
62124;BME280;48110;47.532;19.078;2023-05-25T14:33:10;100481.97;;;27.85;48.79
62124;BME280;48110;47.532;19.078;2023-05-25T14:36:18;100492.75;;;28.20;47.33
62124;BME280;48110;47.532;19.078;2023-05-25T14:39:24;100478.59;;;28.08;48.21
62124;BME280;48110;47.532;19.078;2023-05-25T14:42:29;100477.91;;;28.41;47.66
62124;BME280;48110;47.532;19.078;2023-05-25T14:45:36;100471.13;;;30.02;42.85
62124;BME280;48110;47.532;19.078;2023-05-25T14:48:40;100475.19;;;31.58;41.19
62124;BME280;48110;47.532;19.078;2023-05-25T14:51:47;100469.88;;;31.47;39.51
62124;BME280;48110;47.532;19.078;2023-05-25T14:54:51;100476.03;;;34.80;34.44
62124;BME280;48110;47.532;19.078;2023-05-25T14:57:57;100476.34;;;33.62;36.42
62124;BME280;48110;47.532;19.078;2023-05-25T15:01:02;100469.00;;;32.87;37.56
62124;BME280;48110;47.532;19.078;2023-05-25T15:04:07;100471.63;;;31.57;40.09
62124;BME280;48110;47.532;19.078;2023-05-25T15:07:12;100465.56;;;31.14;40.82
62124;BME280;48110;47.532;19.078;2023-05-25T15:10:19;100462.28;;;32.71;38.32
62124;BME280;48110;47.532;19.078;2023-05-25T15:13:25;100469.22;;;33.61;36.58
62124;BME280;48110;47.532;19.078;2023-05-25T15:16:31;100472.91;;;33.17;35.96
62124;BME280;48110;47.532;19.078;2023-05-25T15:19:40;100461.94;;;31.19;39.27
62124;BME280;48110;47.532;19.078;2023-05-25T15:22:45;100455.38;;;29.94;41.68
62124;BME280;48110;47.532;19.078;2023-05-25T15:25:51;100455.34;;;30.17;42.04
62124;BME280;48110;47.532;19.078;2023-05-25T15:28:57;100459.16;;;29.26;45.66
62124;BME280;48110;47.532;19.078;2023-05-25T15:32:02;100454.09;;;27.13;49.46
62124;BME280;48110;47.532;19.078;2023-05-25T15:35:08;100454.91;;;26.63;51.52
62124;BME280;48110;47.532;19.078;2023-05-25T15:38:14;100449.12;;;27.51;50.19
62124;BME280;48110;47.532;19.078;2023-05-25T15:41:20;100449.41;;;27.49;50.23
62124;BME280;48110;47.532;19.078;2023-05-25T15:44:29;100448.50;;;28.28;48.57
62124;BME280;48110;47.532;19.078;2023-05-25T15:47:34;100449.25;;;28.78;47.07
62124;BME280;48110;47.532;19.078;2023-05-25T15:50:41;100455.91;;;28.95;46.51
62124;BME280;48110;47.532;19.078;2023-05-25T15:53:47;100449.25;;;28.78;46.72
62124;BME280;48110;47.532;19.078;2023-05-25T15:56:52;100459.44;;;27.69;48.63
62124;BME280;48110;47.532;19.078;2023-05-25T15:59:58;100449.22;;;26.75;51.50
62124;BME280;48110;47.532;19.078;2023-05-25T16:03:04;100460.13;;;27.00;51.06
62124;BME280;48110;47.532;19.078;2023-05-25T16:06:11;100458.44;;;26.28;53.31
62124;BME280;48110;47.532;19.078;2023-05-25T16:09:17;100452.22;;;25.61;55.87
62124;BME280;48110;47.532;19.078;2023-05-25T16:12:22;100448.44;;;25.72;56.53